createdAt,value
2023-02-19T12:01:47.979Z,6.20
2023-02-19T12:03:40.118Z,3.80
2023-02-19T12:05:19.193Z,4.40
2023-02-19T12:07:16.949Z,5.00
2023-02-19T12:09:15.553Z,4.60
2023-02-19T12:10:56.895Z,4.00
2023-02-19T12:12:38.077Z,3.00
2023-02-19T12:14:44.588Z,4.20
2023-02-19T12:16:21.609Z,4.00
2023-02-19T12:18:08.657Z,2.40
2023-02-19T12:20:22.111Z,4.80
2023-02-19T12:22:05.785Z,3.00
2023-02-19T12:23:55.551Z,2.40
2023-02-19T12:25:42.525Z,2.00
2023-02-19T12:27:26.180Z,3.20
2023-02-19T12:28:58.063Z,3.00
2023-02-19T12:30:47.920Z,4.80
2023-02-19T12:32:44.268Z,18.40
2023-02-19T12:34:50.214Z,30.80
2023-02-19T12:36:55.558Z,45.20
2023-02-19T12:38:52.251Z,52.60
2023-02-19T12:40:32.989Z,61.00
2023-02-19T12:42:22.691Z,72.50
2023-02-19T12:44:00.814Z,77.75
2023-02-19T12:45:44.946Z,78.00
2023-02-19T12:47:22.039Z,89.00
2023-02-19T12:49:09.957Z,96.50
2023-02-19T12:50:41.876Z,89.75
2023-02-19T12:52:41.975Z,102.25
2023-02-19T12:54:34.833Z,105.75
2023-02-19T12:56:15.150Z,112.20
2023-02-19T12:57:47.048Z,112.80
2023-02-19T12:59:34.019Z,105.80
2023-02-19T13:01:07.609Z,110.40
2023-02-19T13:02:39.526Z,121.00
2023-02-19T13:04:17.933Z,133.00
2023-02-19T13:05:55.958Z,139.25
2023-02-19T13:07:45.073Z,131.25
2023-02-19T13:09:30.184Z,134.50
2023-02-19T13:11:16.394Z,154.00
2023-02-19T13:12:48.444Z,159.25
2023-02-19T13:14:45.663Z,150.75
2023-02-19T13:16:19.794Z,147.00
2023-02-19T13:17:53.398Z,153.75
2023-02-19T13:19:25.627Z,159.75
2023-02-19T13:20:57.545Z,151.50
2023-02-19T13:23:16.747Z,145.25
2023-02-19T13:24:48.660Z,151.50
2023-02-19T13:26:39.080Z,135.50
2023-02-19T13:28:24.667Z,159.00
2023-02-19T13:30:21.618Z,155.75
2023-02-19T13:32:12.168Z,155.25
2023-02-19T13:34:13.341Z,135.25
2023-02-19T13:36:10.771Z,134.75
2023-02-19T13:37:42.592Z,127.25
2023-02-19T13:40:59.232Z,132.50
2023-02-19T13:42:37.409Z,133.75
2023-02-19T13:44:23.454Z,123.25
2023-02-19T13:45:58.137Z,112.75
2023-02-19T13:47:49.150Z,111.50
2023-02-19T13:49:34.091Z,114.50
2023-02-19T13:51:23.770Z,109.00
2023-02-19T13:52:59.800Z,106.20
2023-02-19T13:54:33.620Z,116.50
2023-02-19T13:56:05.663Z,99.80
2023-02-19T13:57:39.295Z,100.75
2023-02-19T13:59:11.073Z,89.25
2023-02-19T14:00:50.606Z,86.75
2023-02-19T14:02:22.680Z,91.50
2023-02-19T14:04:07.071Z,100.00
2023-02-19T14:05:57.724Z,87.00
2023-02-19T14:07:35.676Z,84.00
2023-02-19T14:09:36.276Z,103.00
2023-02-19T14:11:09.052Z,98.00
2023-02-19T14:12:41.159Z,89.25
2023-02-19T14:14:34.451Z,77.75
2023-02-19T14:16:13.648Z,81.00
2023-02-19T14:17:48.735Z,88.25
2023-02-19T14:19:47.331Z,81.75
2023-02-19T14:21:26.528Z,97.75
2023-02-19T14:23:01.820Z,95.25
2023-02-19T14:24:33.858Z,90.75
2023-02-19T14:26:07.596Z,93.75
2023-02-19T14:27:39.537Z,88.50
2023-02-19T14:29:12.502Z,86.50
2023-02-19T14:31:01.247Z,81.75
2023-02-19T14:32:33.113Z,91.00
2023-02-19T14:34:07.208Z,81.50
2023-02-19T14:35:43.974Z,79.00
2023-02-19T14:37:18.236Z,82.75
2023-02-19T14:39:26.411Z,84.00
2023-02-19T14:40:58.402Z,81.75
2023-02-19T14:42:34.121Z,81.50
2023-02-19T14:44:08.225Z,79.75
2023-02-19T14:45:46.102Z,79.00
2023-02-19T14:47:19.785Z,83.00
2023-02-19T14:48:51.603Z,76.25
2023-02-19T14:50:28.606Z,78.25
2023-02-19T14:52:01.706Z,75.00
2023-02-19T14:53:35.728Z,77.00
2023-02-19T14:55:26.714Z,76.00
2023-02-19T14:56:58.654Z,76.00
2023-02-19T14:58:33.424Z,71.50
2023-02-19T15:00:20.592Z,67.75
2023-02-19T15:02:03.355Z,74.50
2023-02-19T15:03:36.691Z,64.00
2023-02-19T15:05:24.350Z,72.25
2023-02-19T15:06:57.201Z,67.75
2023-02-19T15:08:42.014Z,75.25
2023-02-19T15:10:14.024Z,77.25
2023-02-19T15:11:45.975Z,86.50
2023-02-19T15:13:20.337Z,87.25
2023-02-19T15:14:54.082Z,87.25
2023-02-19T15:16:26.120Z,83.00
2023-02-19T15:17:58.114Z,88.25
2023-02-19T15:19:33.347Z,94.75
2023-02-19T15:21:05.941Z,103.50
2023-02-19T15:22:37.855Z,86.25
2023-02-19T15:24:11.054Z,91.50
2023-02-19T15:25:42.971Z,87.00
2023-02-19T15:27:22.962Z,91.25
2023-02-19T15:29:02.580Z,81.25
2023-02-19T15:30:34.633Z,88.50
2023-02-19T15:32:22.769Z,87.50
2023-02-19T15:33:54.788Z,82.50
2023-02-19T15:35:27.768Z,80.25
2023-02-19T15:37:01.856Z,107.20
2023-02-19T15:38:34.275Z,146.00
2023-02-19T15:40:07.806Z,218.00
2023-02-19T15:41:39.773Z,190.25
2023-02-19T15:43:17.690Z,163.75
2023-02-19T15:45:08.971Z,151.25
2023-02-19T15:46:40.800Z,129.00
2023-02-19T15:48:24.828Z,130.75
2023-02-19T15:50:00.751Z,131.50
2023-02-19T15:51:37.543Z,137.00
2023-02-19T15:53:14.829Z,139.50
2023-02-19T15:55:12.376Z,132.25
2023-02-19T15:56:44.972Z,132.25
2023-02-19T15:58:50.900Z,141.50
2023-02-19T16:00:38.097Z,138.00
2023-02-19T16:02:12.169Z,121.00
2023-02-19T16:03:44.353Z,122.25
2023-02-19T16:05:24.456Z,126.00
2023-02-19T16:06:58.494Z,114.50
2023-02-19T16:08:32.118Z,117.25
2023-02-19T16:10:23.546Z,115.25
2023-02-19T16:11:56.893Z,121.00
2023-02-19T16:13:30.981Z,115.20
2023-02-19T16:15:12.906Z,115.25
2023-02-19T16:16:45.097Z,118.00
2023-02-19T16:18:16.984Z,119.00
2023-02-19T16:20:00.265Z,116.75
2023-02-19T16:21:32.483Z,129.50
2023-02-19T16:23:14.276Z,121.75
2023-02-19T16:24:50.429Z,121.75
2023-02-19T16:26:22.406Z,120.25
2023-02-19T16:27:54.352Z,118.50
2023-02-19T16:29:28.983Z,130.50
2023-02-19T16:31:02.580Z,130.75
2023-02-19T16:32:34.537Z,126.75
2023-02-19T16:34:26.593Z,131.00
2023-02-19T16:35:58.815Z,129.50
2023-02-19T16:37:33.481Z,116.75
2023-02-19T16:39:08.512Z,141.50
2023-02-19T16:40:43.399Z,122.00
2023-02-19T16:42:15.438Z,129.75
2023-02-19T16:43:47.955Z,119.75
2023-02-19T16:45:19.956Z,125.00
2023-02-19T16:47:00.130Z,114.75
2023-02-19T16:48:32.176Z,116.50
2023-02-19T16:50:07.632Z,125.00
2023-02-19T16:51:39.556Z,107.40
2023-02-19T16:53:21.872Z,105.80
2023-02-19T16:54:53.919Z,111.20
2023-02-19T16:56:25.838Z,108.40
2023-02-19T16:57:58.926Z,111.20
2023-02-19T16:59:34.080Z,108.20
2023-02-19T17:01:06.007Z,99.40
2023-02-19T17:02:37.926Z,103.80
2023-02-19T17:04:11.663Z,102.80
2023-02-19T17:05:43.638Z,94.40
2023-02-19T17:07:16.159Z,92.60
2023-02-19T17:08:48.122Z,99.25
2023-02-19T17:10:23.153Z,95.50
2023-02-19T17:11:55.081Z,89.50
2023-02-19T17:13:27.304Z,86.25
2023-02-19T17:14:59.307Z,94.60
2023-02-19T17:16:34.578Z,104.40
2023-02-19T17:18:06.718Z,111.60
2023-02-19T17:19:39.954Z,102.20
2023-02-19T17:21:22.673Z,109.20
2023-02-19T17:22:55.795Z,100.80
2023-02-19T17:24:27.737Z,113.50
2023-02-19T17:25:59.733Z,107.50
2023-02-19T17:27:31.527Z,115.00
2023-02-19T17:29:05.638Z,112.25
2023-02-19T17:30:39.882Z,115.75
2023-02-19T17:32:12.230Z,126.00
2023-02-19T17:33:44.750Z,122.50
2023-02-19T17:35:17.132Z,116.50
2023-02-19T17:36:49.136Z,117.50
2023-02-19T17:38:21.100Z,114.50
2023-02-19T17:39:53.044Z,113.25
2023-02-19T17:41:25.144Z,133.00
2023-02-19T17:42:56.985Z,119.25
2023-02-19T17:44:28.816Z,117.25
2023-02-19T17:46:00.671Z,110.80
2023-02-19T17:47:32.584Z,108.60
2023-02-19T17:49:04.464Z,134.50
2023-02-19T17:50:36.432Z,112.00
2023-02-19T17:52:08.346Z,128.00
2023-02-19T17:53:40.341Z,105.50
2023-02-19T17:55:13.053Z,112.60
2023-02-19T17:56:46.271Z,119.00
2023-02-19T17:58:18.516Z,129.25
2023-02-19T17:59:50.584Z,129.00
2023-02-19T18:01:22.654Z,130.50
2023-02-19T18:02:54.675Z,135.75
2023-02-19T18:04:26.910Z,136.50
2023-02-19T18:05:59.126Z,138.75
2023-02-19T18:07:31.070Z,129.00
2023-02-19T18:09:03.233Z,117.75
2023-02-19T18:10:36.209Z,124.50
2023-02-19T18:12:08.446Z,149.00
2023-02-19T18:13:40.452Z,139.75
2023-02-19T18:15:16.921Z,137.25
2023-02-19T18:16:50.377Z,135.50
2023-02-19T18:18:23.462Z,137.25
2023-02-19T18:19:55.421Z,120.50
2023-02-19T18:21:27.314Z,130.50
2023-02-19T18:22:59.217Z,128.00
2023-02-19T18:24:31.174Z,124.50
2023-02-19T18:26:03.218Z,117.00
2023-02-19T18:27:35.471Z,102.25
2023-02-19T18:29:07.376Z,113.00
2023-02-19T18:30:39.399Z,107.60
2023-02-19T18:32:11.464Z,109.20
2023-02-19T18:33:43.880Z,93.40
2023-02-19T18:35:17.143Z,118.40
2023-02-19T18:36:49.340Z,107.80
2023-02-19T18:38:21.302Z,113.40
2023-02-19T18:39:53.361Z,108.20
2023-02-19T18:41:25.553Z,108.20
2023-02-19T18:42:57.624Z,115.00
2023-02-19T18:44:29.545Z,119.60
2023-02-19T18:46:01.561Z,133.75
2023-02-19T18:47:33.459Z,122.75
2023-02-19T18:49:05.377Z,114.75
2023-02-19T18:50:38.021Z,119.75
2023-02-19T18:52:10.061Z,124.50
2023-02-19T18:53:44.626Z,115.50
2023-02-19T18:55:16.604Z,120.75
2023-02-19T18:56:48.443Z,142.50
2023-02-19T18:58:20.823Z,126.50
2023-02-19T18:59:52.958Z,142.75
2023-02-19T19:01:24.926Z,126.50
2023-02-19T19:02:58.070Z,125.50
2023-02-19T19:04:30.013Z,121.50
2023-02-19T19:06:01.938Z,112.50
2023-02-19T19:07:33.777Z,116.00
2023-02-19T19:09:05.791Z,120.75
2023-02-19T19:10:37.733Z,130.75
2023-02-19T19:12:09.642Z,112.75
2023-02-19T19:13:41.711Z,133.75
2023-02-19T19:15:13.960Z,124.75
2023-02-19T19:16:46.854Z,123.50
2023-02-19T19:18:18.773Z,122.25
2023-02-19T19:19:50.751Z,118.50
2023-02-19T19:21:22.795Z,114.75
2023-02-19T19:22:54.842Z,117.25
2023-02-19T19:24:26.668Z,115.25
2023-02-19T19:25:58.549Z,118.00
2023-02-19T19:27:30.354Z,123.25
2023-02-19T19:29:02.356Z,126.25
2023-02-19T19:30:34.292Z,126.00
2023-02-19T19:32:08.216Z,128.50
2023-02-19T19:33:41.223Z,137.25
2023-02-19T19:35:13.151Z,131.75
2023-02-19T19:36:45.178Z,168.50
2023-02-19T19:38:17.280Z,166.50
2023-02-19T19:39:49.206Z,163.25
2023-02-19T19:41:21.329Z,138.50
2023-02-19T19:42:53.315Z,150.00
2023-02-19T19:44:25.131Z,134.00
2023-02-19T19:45:57.098Z,133.00
2023-02-19T19:47:29.426Z,137.25
2023-02-19T19:49:01.462Z,126.75
2023-02-19T19:50:33.470Z,136.25
2023-02-19T19:52:05.455Z,137.50
2023-02-19T19:53:37.322Z,132.25
2023-02-19T19:55:09.728Z,130.75
2023-02-19T19:56:46.216Z,119.50
2023-02-19T19:58:22.836Z,120.50
2023-02-19T19:59:54.757Z,125.50
2023-02-19T20:01:26.580Z,118.60
2023-02-19T20:02:58.624Z,112.80
2023-02-19T20:04:30.509Z,112.80
2023-02-19T20:06:02.429Z,109.00
2023-02-19T20:07:34.361Z,110.80
2023-02-19T20:09:06.334Z,106.00
2023-02-19T20:10:38.223Z,101.25
2023-02-19T20:12:11.010Z,106.20
2023-02-19T20:13:42.982Z,94.50
2023-02-19T20:15:20.276Z,86.75
2023-02-19T20:16:52.973Z,92.25
2023-02-19T20:18:26.115Z,82.25
2023-02-19T20:19:57.937Z,83.00
2023-02-19T20:21:29.884Z,90.75
2023-02-19T20:23:01.869Z,79.50
2023-02-19T20:24:33.696Z,81.50
2023-02-19T20:26:06.046Z,79.00
2023-02-19T20:27:37.947Z,79.00
2023-02-19T20:29:10.607Z,72.00
2023-02-19T20:30:43.844Z,84.00
2023-02-19T20:32:18.680Z,85.50
2023-02-19T20:33:51.384Z,78.00
2023-02-19T20:35:26.516Z,72.25
2023-02-19T20:36:58.497Z,76.75
2023-02-19T20:38:30.423Z,65.00
2023-02-19T20:40:02.589Z,63.25
2023-02-19T20:41:34.506Z,69.00
2023-02-19T20:43:06.502Z,68.75
2023-02-19T20:44:38.783Z,65.00
2023-02-19T20:46:11.386Z,61.00
2023-02-19T20:47:43.964Z,57.50
2023-02-19T20:49:16.750Z,63.25
2023-02-19T20:50:48.660Z,62.00
2023-02-19T20:52:21.154Z,57.25
2023-02-19T20:53:53.071Z,55.00
2023-02-19T20:55:26.068Z,60.00
2023-02-19T20:56:59.507Z,55.00
2023-02-19T20:58:31.389Z,59.00
2023-02-19T21:00:04.282Z,50.00
2023-02-19T21:01:36.402Z,58.00
2023-02-19T21:03:09.295Z,51.00
2023-02-19T21:04:41.234Z,49.60
2023-02-19T21:06:13.306Z,47.60
2023-02-19T21:07:45.654Z,45.00
2023-02-19T21:09:17.551Z,44.00
2023-02-19T21:10:49.380Z,45.20
2023-02-19T21:12:22.312Z,45.60
2023-02-19T21:13:56.749Z,56.20
2023-02-19T21:15:28.841Z,61.00
2023-02-19T21:17:00.901Z,68.00
2023-02-19T21:18:32.909Z,71.75
2023-02-19T21:20:05.233Z,75.00
2023-02-19T21:21:39.458Z,73.75
2023-02-19T21:23:11.295Z,69.75
2023-02-19T21:24:43.409Z,76.75
2023-02-19T21:26:15.332Z,75.50
2023-02-19T21:27:47.288Z,70.00
2023-02-19T21:29:20.735Z,75.75
2023-02-19T21:30:52.604Z,78.00
2023-02-19T21:32:24.576Z,78.75
2023-02-19T21:33:56.491Z,75.50
2023-02-19T21:35:29.247Z,76.50
2023-02-19T21:37:01.167Z,71.25
2023-02-19T21:38:33.089Z,75.00
2023-02-19T21:40:06.202Z,78.75
2023-02-19T21:41:38.061Z,80.50
2023-02-19T21:43:10.182Z,86.00
2023-02-19T21:44:43.160Z,82.25
2023-02-19T21:46:18.868Z,89.25
2023-02-19T21:47:52.280Z,94.00
2023-02-19T21:49:24.355Z,88.40
2023-02-19T21:50:56.185Z,98.20
2023-02-19T21:52:29.000Z,83.80
2023-02-19T21:54:00.983Z,97.60
2023-02-19T21:55:33.082Z,95.80
2023-02-19T21:57:04.987Z,104.20
2023-02-19T21:58:37.154Z,102.20
2023-02-19T22:00:09.402Z,84.20
2023-02-19T22:01:42.337Z,91.00
2023-02-19T22:03:17.241Z,91.40
2023-02-19T22:04:56.214Z,91.75
2023-02-19T22:06:29.669Z,97.40
2023-02-19T22:08:01.797Z,99.00
2023-02-19T22:09:33.705Z,89.75
2023-02-19T22:11:05.623Z,93.50
2023-02-19T22:12:37.545Z,89.50
2023-02-19T22:14:09.500Z,84.00
2023-02-19T22:15:41.363Z,88.00
2023-02-19T22:17:13.402Z,90.00
2023-02-19T22:18:52.632Z,87.25
2023-02-19T22:20:24.518Z,108.00
2023-02-19T22:21:56.419Z,111.40
2023-02-19T22:23:28.477Z,104.20
2023-02-19T22:25:00.351Z,112.80
2023-02-19T22:26:34.584Z,118.50
2023-02-19T22:28:07.851Z,119.25
2023-02-19T22:29:39.780Z,119.75
2023-02-19T22:31:12.098Z,122.00
2023-02-19T22:32:43.947Z,117.25
2023-02-19T22:34:15.961Z,110.25
2023-02-19T22:35:47.782Z,114.75
2023-02-19T22:37:19.712Z,116.25
2023-02-19T22:38:51.878Z,113.25
2023-02-19T22:40:23.887Z,101.75
2023-02-19T22:41:55.870Z,116.25
2023-02-19T22:43:27.697Z,108.25
2023-02-19T22:44:59.535Z,105.00
2023-02-19T22:46:31.474Z,107.40
2023-02-19T22:48:03.382Z,111.80
2023-02-19T22:49:37.940Z,111.00
2023-02-19T22:51:13.253Z,95.60
2023-02-19T22:52:45.256Z,104.20
2023-02-19T22:54:17.296Z,114.50
2023-02-19T22:55:49.221Z,109.20
2023-02-19T22:57:21.212Z,99.20
2023-02-19T22:58:53.609Z,95.75
2023-02-19T23:00:25.601Z,101.00
2023-02-19T23:01:57.519Z,108.00
2023-02-19T23:03:29.367Z,113.75
2023-02-19T23:05:01.214Z,117.25
2023-02-19T23:06:34.418Z,131.25
2023-02-19T23:08:06.506Z,129.50
2023-02-19T23:09:38.417Z,123.25
2023-02-19T23:11:13.453Z,112.00
2023-02-19T23:12:45.301Z,124.50
2023-02-19T23:14:18.197Z,123.00
2023-02-19T23:15:50.021Z,115.00
2023-02-19T23:17:21.922Z,129.25
2023-02-19T23:18:53.868Z,109.25
2023-02-19T23:20:25.777Z,120.25
2023-02-19T23:21:57.649Z,110.80
2023-02-19T23:23:29.593Z,114.40
2023-02-19T23:25:01.506Z,104.80
2023-02-19T23:26:33.448Z,110.20
2023-02-19T23:28:05.364Z,106.00
2023-02-19T23:29:37.258Z,95.20
2023-02-19T23:31:09.379Z,106.20
2023-02-19T23:32:41.368Z,107.40
2023-02-19T23:34:13.533Z,91.40
